sensor_id;sensor_type;location;lat;lon;timestamp;pressure;altitude;pressure_sealevel;temperature;humidity
63582;BME280;49727;51.078;17.066;2022-08-21T00:07:06;99822.63;;;20.14;78.78
63582;BME280;49727;51.078;17.066;2022-08-21T00:22:06;99805.56;;;19.96;78.81
63582;BME280;49727;51.078;17.066;2022-08-21T00:37:07;99799.47;;;19.77;79.09
63582;BME280;49727;51.078;17.066;2022-08-21T00:52:11;99806.31;;;19.68;79.35
63582;BME280;49727;51.078;17.066;2022-08-21T01:07:13;99806.22;;;19.62;79.66
63582;BME280;49727;51.078;17.066;2022-08-21T01:22:14;99763.97;;;19.56;79.52
63582;BME280;49727;51.078;17.066;2022-08-21T01:37:15;99737.69;;;19.40;80.00
63582;BME280;49727;51.078;17.066;2022-08-21T01:52:16;99733.88;;;19.24;79.92
63582;BME280;49727;51.078;17.066;2022-08-21T02:07:16;99745.03;;;19.04;79.90
63582;BME280;49727;51.078;17.066;2022-08-21T02:22:17;99726.44;;;18.90;80.18
63582;BME280;49727;51.078;17.066;2022-08-21T02:37:17;99703.16;;;18.77;80.21
63582;BME280;49727;51.078;17.066;2022-08-21T02:52:18;99705.28;;;18.64;80.41
63582;BME280;49727;51.078;17.066;2022-08-21T03:07:18;99717.47;;;18.54;80.53
63582;BME280;49727;51.078;17.066;2022-08-21T03:22:18;99710.31;;;18.60;80.68
63582;BME280;49727;51.078;17.066;2022-08-21T03:37:19;99730.41;;;18.52;81.06
63582;BME280;49727;51.078;17.066;2022-08-21T03:52:19;99745.28;;;18.43;80.72
63582;BME280;49727;51.078;17.066;2022-08-21T04:07:19;99737.28;;;18.36;80.87
63582;BME280;49727;51.078;17.066;2022-08-21T04:22:20;99741.88;;;18.36;81.14
63582;BME280;49727;51.078;17.066;2022-08-21T04:37:20;99756.75;;;18.38;81.17
63582;BME280;49727;51.078;17.066;2022-08-21T04:52:22;99751.94;;;18.40;80.98
63582;BME280;49727;51.078;17.066;2022-08-21T05:07:26;99767.41;;;18.45;80.95
63582;BME280;49727;51.078;17.066;2022-08-21T05:22:28;99773.31;;;18.54;81.04
63582;BME280;49727;51.078;17.066;2022-08-21T05:37:29;99793.34;;;18.46;80.91
63582;BME280;49727;51.078;17.066;2022-08-21T05:52:29;99803.88;;;18.36;80.76
63582;BME280;49727;51.078;17.066;2022-08-21T06:07:30;99808.19;;;18.25;80.66
63582;BME280;49727;51.078;17.066;2022-08-21T06:22:30;99828.22;;;18.17;80.97
63582;BME280;49727;51.078;17.066;2022-08-21T06:37:31;99869.78;;;18.09;80.98
63582;BME280;49727;51.078;17.066;2022-08-21T06:52:31;99890.03;;;18.00;81.10
63582;BME280;49727;51.078;17.066;2022-08-21T07:07:32;99916.09;;;17.63;80.48
63582;BME280;49727;51.078;17.066;2022-08-21T07:22:32;99915.44;;;17.23;80.62
63582;BME280;49727;51.078;17.066;2022-08-21T07:37:33;99906.84;;;16.89;80.69
63582;BME280;49727;51.078;17.066;2022-08-21T07:52:34;99920.09;;;16.84;80.90
63582;BME280;49727;51.078;17.066;2022-08-21T08:07:34;99917.34;;;16.98;80.68
63582;BME280;49727;51.078;17.066;2022-08-21T08:22:36;99933.03;;;17.01;80.30
63582;BME280;49727;51.078;17.066;2022-08-21T08:37:38;99937.47;;;17.14;79.92
63582;BME280;49727;51.078;17.066;2022-08-21T08:52:47;99941.31;;;17.50;79.36
63582;BME280;49727;51.078;17.066;2022-08-21T09:38:06;99961.22;;;17.92;76.46
63582;BME280;49727;51.078;17.066;2022-08-21T09:53:17;99959.53;;;17.73;76.15
63582;BME280;49727;51.078;17.066;2022-08-21T10:08:19;99965.84;;;18.22;75.50
63582;BME280;49727;51.078;17.066;2022-08-21T10:23:27;99967.31;;;17.81;74.01
63582;BME280;49727;51.078;17.066;2022-08-21T10:38:36;99966.78;;;17.72;74.37
63582;BME280;49727;51.078;17.066;2022-08-21T10:53:47;99952.59;;;17.84;73.34
63582;BME280;49727;51.078;17.066;2022-08-21T11:08:57;99948.94;;;17.97;73.40
63582;BME280;49727;51.078;17.066;2022-08-21T11:24:12;99968.19;;;17.75;72.95
63582;BME280;49727;51.078;17.066;2022-08-21T11:54:27;99965.84;;;17.41;72.47
63582;BME280;49727;51.078;17.066;2022-08-21T12:09:34;99978.69;;;17.83;72.06
63582;BME280;49727;51.078;17.066;2022-08-21T12:24:45;99982.78;;;17.92;71.36
63582;BME280;49727;51.078;17.066;2022-08-21T12:39:51;99973.69;;;17.87;71.57
63582;BME280;49727;51.078;17.066;2022-08-21T12:54:52;99957.22;;;18.14;71.42
63582;BME280;49727;51.078;17.066;2022-08-21T13:09:56;99957.38;;;18.19;71.25
63582;BME280;49727;51.078;17.066;2022-08-21T13:24:58;99956.41;;;18.13;71.26
63582;BME280;49727;51.078;17.066;2022-08-21T13:39:58;99968.59;;;18.34;71.07
63582;BME280;49727;51.078;17.066;2022-08-21T13:55:08;99962.94;;;18.54;70.69
63582;BME280;49727;51.078;17.066;2022-08-21T14:10:19;99979.03;;;18.61;70.41
63582;BME280;49727;51.078;17.066;2022-08-21T14:40:25;99970.66;;;18.81;69.75
63582;BME280;49727;51.078;17.066;2022-08-21T14:55:26;99967.44;;;18.60;69.01
63582;BME280;49727;51.078;17.066;2022-08-21T15:10:27;99973.59;;;18.49;68.92
63582;BME280;49727;51.078;17.066;2022-08-21T15:25:28;99971.19;;;18.41;69.48
63582;BME280;49727;51.078;17.066;2022-08-21T15:40:28;99983.06;;;18.40;69.46
63582;BME280;49727;51.078;17.066;2022-08-21T15:55:29;99978.84;;;18.44;70.05
63582;BME280;49727;51.078;17.066;2022-08-21T16:10:30;99976.00;;;18.39;70.50
63582;BME280;49727;51.078;17.066;2022-08-21T16:25:35;99976.47;;;18.36;71.20
63582;BME280;49727;51.078;17.066;2022-08-21T16:40:36;99979.47;;;18.27;71.87
63582;BME280;49727;51.078;17.066;2022-08-21T16:55:36;100002.84;;;18.15;72.65
63582;BME280;49727;51.078;17.066;2022-08-21T17:10:41;100006.72;;;18.01;73.24
63582;BME280;49727;51.078;17.066;2022-08-21T17:25:45;100007.75;;;17.81;73.97
63582;BME280;49727;51.078;17.066;2022-08-21T17:40:46;100016.59;;;17.63;74.63
63582;BME280;49727;51.078;17.066;2022-08-21T17:55:48;100019.41;;;17.50;74.94
63582;BME280;49727;51.078;17.066;2022-08-21T18:10:49;100019.97;;;17.33;74.89
63582;BME280;49727;51.078;17.066;2022-08-21T18:25:55;100022.97;;;17.18;75.08
63582;BME280;49727;51.078;17.066;2022-08-21T18:40:56;100019.09;;;17.07;75.17
63582;BME280;49727;51.078;17.066;2022-08-21T18:55:58;100034.84;;;17.04;75.52
63582;BME280;49727;51.078;17.066;2022-08-21T19:10:59;100036.16;;;16.95;75.45
63582;BME280;49727;51.078;17.066;2022-08-21T19:26:03;100045.69;;;16.84;75.80
63582;BME280;49727;51.078;17.066;2022-08-21T19:41:09;100035.63;;;16.72;75.86
63582;BME280;49727;51.078;17.066;2022-08-21T19:56:13;100026.78;;;16.58;76.51
63582;BME280;49727;51.078;17.066;2022-08-21T20:11:24;100033.00;;;16.52;76.84
63582;BME280;49727;51.078;17.066;2022-08-21T20:26:25;100043.75;;;16.59;77.41
63582;BME280;49727;51.078;17.066;2022-08-21T20:41:26;100036.69;;;16.65;77.27
63582;BME280;49727;51.078;17.066;2022-08-21T21:11:43;100017.44;;;16.68;77.54
63582;BME280;49727;51.078;17.066;2022-08-21T21:26:51;100027.38;;;16.61;77.79
63582;BME280;49727;51.078;17.066;2022-08-21T22:12:49;100021.66;;;16.50;78.54
63582;BME280;49727;51.078;17.066;2022-08-21T22:28:03;100026.47;;;16.35;78.57
63582;BME280;49727;51.078;17.066;2022-08-21T22:43:16;100005.81;;;16.29;78.96
63582;BME280;49727;51.078;17.066;2022-08-21T23:13:17;100007.34;;;15.98;79.17
63582;BME280;49727;51.078;17.066;2022-08-21T23:28:37;100025.13;;;15.99;79.58
